In Rescue
 
Open Full Screen Window  High Contrast Mode
October 19, 2020 8:10 PM EDT
Present Weather: Mist
Weather Information
Wind Direction
  ---
Wind Speed
  00 kt (0 mph)
Wind Gust
  00 kt (0 mph)
Altimeter
30.12 in
Visibility
1 3/4 SM
Temperature
13° C
55° F
Dewpoint
13° C
55° F
Humidity
100%
1hr Rain Fall
00.00 in.
24hr Rain Fall
00.00 in.
Sky Condition
Overcast @ 200 ft
LIFR

METAR K4I3 200010Z AUTO 00000KT 1 3/4SM BR OVC002 13/13 A3012 RMK AO2 LTG DSN

FAA Disclaimer: The data displayed is for advisory purposes only and is not to be used for flight planning or operations.